sensor_id;sensor_type;location;lat;lon;timestamp;P1;durP1;ratioP1;P2;durP2;ratioP2
48975;SDS011;34791;52.752;8.346;2024-01-11T00:00:56;24.60;;;9.00;;
48975;SDS011;34791;52.752;8.346;2024-01-11T00:03:22;31.37;;;11.00;;
48975;SDS011;34791;52.752;8.346;2024-01-11T00:05:47;29.97;;;10.93;;
48975;SDS011;34791;52.752;8.346;2024-01-11T00:08:12;29.23;;;10.93;;
48975;SDS011;34791;52.752;8.346;2024-01-11T00:10:38;28.63;;;10.67;;
48975;SDS011;34791;52.752;8.346;2024-01-11T00:13:03;21.40;;;8.00;;
48975;SDS011;34791;52.752;8.346;2024-01-11T00:15:29;32.83;;;11.10;;
48975;SDS011;34791;52.752;8.346;2024-01-11T00:17:54;31.97;;;12.23;;
48975;SDS011;34791;52.752;8.346;2024-01-11T00:20:19;29.40;;;11.10;;
48975;SDS011;34791;52.752;8.346;2024-01-11T00:22:45;28.77;;;10.87;;
48975;SDS011;34791;52.752;8.346;2024-01-11T00:25:10;24.23;;;9.30;;
48975;SDS011;34791;52.752;8.346;2024-01-11T00:27:35;30.63;;;10.80;;
48975;SDS011;34791;52.752;8.346;2024-01-11T00:30:00;30.30;;;11.27;;
48975;SDS011;34791;52.752;8.346;2024-01-11T00:32:26;34.07;;;11.97;;
48975;SDS011;34791;52.752;8.346;2024-01-11T00:34:51;30.90;;;11.50;;
48975;SDS011;34791;52.752;8.346;2024-01-11T00:37:17;36.97;;;12.63;;
48975;SDS011;34791;52.752;8.346;2024-01-11T00:39:42;31.73;;;11.30;;
48975;SDS011;34791;52.752;8.346;2024-01-11T00:42:10;35.07;;;11.40;;
48975;SDS011;34791;52.752;8.346;2024-01-11T00:44:35;34.57;;;12.87;;
48975;SDS011;34791;52.752;8.346;2024-01-11T00:47:01;36.00;;;12.47;;
48975;SDS011;34791;52.752;8.346;2024-01-11T00:49:26;37.23;;;12.93;;
48975;SDS011;34791;52.752;8.346;2024-01-11T00:51:51;31.43;;;11.90;;
48975;SDS011;34791;52.752;8.346;2024-01-11T00:54:16;36.40;;;13.93;;
48975;SDS011;34791;52.752;8.346;2024-01-11T00:56:42;33.53;;;12.80;;
48975;SDS011;34791;52.752;8.346;2024-01-11T00:59:07;37.93;;;13.23;;
48975;SDS011;34791;52.752;8.346;2024-01-11T01:01:32;39.30;;;13.33;;
48975;SDS011;34791;52.752;8.346;2024-01-11T01:03:58;38.03;;;12.83;;
48975;SDS011;34791;52.752;8.346;2024-01-11T01:06:23;38.47;;;13.30;;
48975;SDS011;34791;52.752;8.346;2024-01-11T01:08:48;40.87;;;13.47;;
48975;SDS011;34791;52.752;8.346;2024-01-11T01:11:13;37.07;;;12.80;;
48975;SDS011;34791;52.752;8.346;2024-01-11T01:13:39;38.77;;;12.50;;
48975;SDS011;34791;52.752;8.346;2024-01-11T01:16:04;33.10;;;12.37;;
48975;SDS011;34791;52.752;8.346;2024-01-11T01:18:30;35.83;;;12.87;;
48975;SDS011;34791;52.752;8.346;2024-01-11T01:20:55;42.67;;;13.43;;
48975;SDS011;34791;52.752;8.346;2024-01-11T01:23:20;36.63;;;12.47;;
48975;SDS011;34791;52.752;8.346;2024-01-11T01:25:46;36.97;;;13.83;;
48975;SDS011;34791;52.752;8.346;2024-01-11T01:28:11;44.90;;;14.93;;
48975;SDS011;34791;52.752;8.346;2024-01-11T01:30:36;36.23;;;12.87;;
48975;SDS011;34791;52.752;8.346;2024-01-11T01:33:01;41.03;;;13.63;;
48975;SDS011;34791;52.752;8.346;2024-01-11T01:35:27;40.17;;;13.07;;
48975;SDS011;34791;52.752;8.346;2024-01-11T01:37:52;38.73;;;14.20;;
48975;SDS011;34791;52.752;8.346;2024-01-11T01:40:17;42.60;;;14.27;;
48975;SDS011;34791;52.752;8.346;2024-01-11T01:42:43;38.20;;;14.00;;
48975;SDS011;34791;52.752;8.346;2024-01-11T01:45:09;41.20;;;14.27;;
48975;SDS011;34791;52.752;8.346;2024-01-11T01:47:34;37.33;;;13.90;;
48975;SDS011;34791;52.752;8.346;2024-01-11T01:49:59;40.20;;;14.73;;
48975;SDS011;34791;52.752;8.346;2024-01-11T01:52:25;44.93;;;14.13;;
48975;SDS011;34791;52.752;8.346;2024-01-11T01:54:50;44.50;;;14.33;;
48975;SDS011;34791;52.752;8.346;2024-01-11T01:57:16;41.00;;;14.17;;
48975;SDS011;34791;52.752;8.346;2024-01-11T01:59:41;45.07;;;14.53;;
48975;SDS011;34791;52.752;8.346;2024-01-11T02:02:08;45.30;;;15.63;;
48975;SDS011;34791;52.752;8.346;2024-01-11T02:04:34;45.47;;;16.63;;
48975;SDS011;34791;52.752;8.346;2024-01-11T02:07:00;50.13;;;16.03;;
48975;SDS011;34791;52.752;8.346;2024-01-11T02:09:25;42.53;;;14.03;;
48975;SDS011;34791;52.752;8.346;2024-01-11T02:11:52;44.23;;;14.30;;
48975;SDS011;34791;52.752;8.346;2024-01-11T02:14:18;42.57;;;14.60;;
48975;SDS011;34791;52.752;8.346;2024-01-11T02:16:44;51.23;;;14.50;;
48975;SDS011;34791;52.752;8.346;2024-01-11T02:19:10;50.03;;;16.43;;
48975;SDS011;34791;52.752;8.346;2024-01-11T02:21:37;52.80;;;16.73;;
48975;SDS011;34791;52.752;8.346;2024-01-11T02:24:05;48.57;;;15.80;;
48975;SDS011;34791;52.752;8.346;2024-01-11T02:26:30;48.50;;;15.80;;
48975;SDS011;34791;52.752;8.346;2024-01-11T02:28:56;50.87;;;16.63;;
48975;SDS011;34791;52.752;8.346;2024-01-11T02:31:21;47.37;;;16.80;;
48975;SDS011;34791;52.752;8.346;2024-01-11T02:33:47;51.03;;;16.27;;
48975;SDS011;34791;52.752;8.346;2024-01-11T02:36:12;55.50;;;16.77;;
48975;SDS011;34791;52.752;8.346;2024-01-11T02:38:38;56.77;;;18.80;;
48975;SDS011;34791;52.752;8.346;2024-01-11T02:41:05;52.73;;;17.03;;
48975;SDS011;34791;52.752;8.346;2024-01-11T02:43:30;57.87;;;17.53;;
48975;SDS011;34791;52.752;8.346;2024-01-11T02:45:55;57.93;;;16.70;;
48975;SDS011;34791;52.752;8.346;2024-01-11T02:48:21;46.03;;;16.30;;
48975;SDS011;34791;52.752;8.346;2024-01-11T02:50:47;48.40;;;16.83;;
48975;SDS011;34791;52.752;8.346;2024-01-11T02:53:12;55.83;;;16.87;;
48975;SDS011;34791;52.752;8.346;2024-01-11T02:55:37;55.63;;;16.97;;
48975;SDS011;34791;52.752;8.346;2024-01-11T02:58:03;45.87;;;16.40;;
48975;SDS011;34791;52.752;8.346;2024-01-11T03:00:28;59.80;;;17.53;;
48975;SDS011;34791;52.752;8.346;2024-01-11T03:02:53;56.80;;;17.17;;
48975;SDS011;34791;52.752;8.346;2024-01-11T03:05:18;52.73;;;17.30;;
48975;SDS011;34791;52.752;8.346;2024-01-11T03:07:44;61.33;;;17.53;;
48975;SDS011;34791;52.752;8.346;2024-01-11T03:10:09;55.50;;;17.97;;
48975;SDS011;34791;52.752;8.346;2024-01-11T03:12:34;62.60;;;18.43;;
48975;SDS011;34791;52.752;8.346;2024-01-11T03:15:00;63.70;;;18.47;;
48975;SDS011;34791;52.752;8.346;2024-01-11T03:17:25;54.83;;;17.50;;
48975;SDS011;34791;52.752;8.346;2024-01-11T03:19:50;57.60;;;17.87;;
48975;SDS011;34791;52.752;8.346;2024-01-11T03:22:16;60.57;;;19.03;;
48975;SDS011;34791;52.752;8.346;2024-01-11T03:24:42;60.83;;;19.00;;
48975;SDS011;34791;52.752;8.346;2024-01-11T03:27:07;54.37;;;18.87;;
48975;SDS011;34791;52.752;8.346;2024-01-11T03:29:32;67.53;;;18.37;;
48975;SDS011;34791;52.752;8.346;2024-01-11T03:31:58;58.33;;;19.47;;
48975;SDS011;34791;52.752;8.346;2024-01-11T03:34:23;61.83;;;19.10;;
48975;SDS011;34791;52.752;8.346;2024-01-11T03:36:48;59.00;;;18.30;;
48975;SDS011;34791;52.752;8.346;2024-01-11T03:39:14;74.97;;;19.73;;
48975;SDS011;34791;52.752;8.346;2024-01-11T03:41:45;66.93;;;20.03;;
48975;SDS011;34791;52.752;8.346;2024-01-11T03:44:10;68.28;;;21.02;;
48975;SDS011;34791;52.752;8.346;2024-01-11T03:46:36;73.60;;;18.90;;
48975;SDS011;34791;52.752;8.346;2024-01-11T03:49:01;65.30;;;19.30;;
48975;SDS011;34791;52.752;8.346;2024-01-11T03:51:27;65.90;;;18.67;;
48975;SDS011;34791;52.752;8.346;2024-01-11T03:53:52;63.23;;;19.27;;
48975;SDS011;34791;52.752;8.346;2024-01-11T03:56:17;80.47;;;20.73;;
48975;SDS011;34791;52.752;8.346;2024-01-11T03:58:43;70.30;;;19.53;;
48975;SDS011;34791;52.752;8.346;2024-01-11T04:01:09;63.80;;;18.77;;
48975;SDS011;34791;52.752;8.346;2024-01-11T04:03:35;62.50;;;19.70;;
48975;SDS011;34791;52.752;8.346;2024-01-11T04:06:00;61.07;;;18.47;;
48975;SDS011;34791;52.752;8.346;2024-01-11T04:08:26;61.50;;;19.97;;
48975;SDS011;34791;52.752;8.346;2024-01-11T04:10:51;62.63;;;19.13;;
48975;SDS011;34791;52.752;8.346;2024-01-11T04:13:16;63.50;;;18.17;;
48975;SDS011;34791;52.752;8.346;2024-01-11T04:15:41;65.90;;;20.43;;
48975;SDS011;34791;52.752;8.346;2024-01-11T04:18:07;66.80;;;20.17;;
48975;SDS011;34791;52.752;8.346;2024-01-11T04:20:32;73.70;;;21.73;;
48975;SDS011;34791;52.752;8.346;2024-01-11T04:22:58;63.83;;;19.53;;
48975;SDS011;34791;52.752;8.346;2024-01-11T04:25:23;70.03;;;20.37;;
48975;SDS011;34791;52.752;8.346;2024-01-11T04:27:48;68.47;;;19.93;;
48975;SDS011;34791;52.752;8.346;2024-01-11T04:30:13;71.93;;;20.13;;
48975;SDS011;34791;52.752;8.346;2024-01-11T04:32:39;70.53;;;20.10;;
48975;SDS011;34791;52.752;8.346;2024-01-11T04:35:04;66.23;;;19.80;;
48975;SDS011;34791;52.752;8.346;2024-01-11T04:37:29;72.53;;;20.53;;
48975;SDS011;34791;52.752;8.346;2024-01-11T04:39:55;74.43;;;19.80;;
48975;SDS011;34791;52.752;8.346;2024-01-11T04:42:20;64.73;;;18.47;;
48975;SDS011;34791;52.752;8.346;2024-01-11T04:44:45;63.33;;;19.70;;
48975;SDS011;34791;52.752;8.346;2024-01-11T04:47:10;66.13;;;20.30;;
48975;SDS011;34791;52.752;8.346;2024-01-11T04:49:36;75.60;;;21.00;;
48975;SDS011;34791;52.752;8.346;2024-01-11T04:52:01;78.03;;;21.73;;
48975;SDS011;34791;52.752;8.346;2024-01-11T04:54:26;62.50;;;21.83;;
48975;SDS011;34791;52.752;8.346;2024-01-11T04:56:51;85.23;;;23.07;;
48975;SDS011;34791;52.752;8.346;2024-01-11T04:59:17;83.43;;;22.43;;
48975;SDS011;34791;52.752;8.346;2024-01-11T05:01:42;82.30;;;22.40;;
48975;SDS011;34791;52.752;8.346;2024-01-11T05:04:10;82.50;;;22.83;;
48975;SDS011;34791;52.752;8.346;2024-01-11T05:06:35;83.10;;;22.73;;
48975;SDS011;34791;52.752;8.346;2024-01-11T05:09:00;76.00;;;23.47;;
48975;SDS011;34791;52.752;8.346;2024-01-11T05:11:26;74.83;;;21.37;;
48975;SDS011;34791;52.752;8.346;2024-01-11T05:13:51;74.83;;;21.53;;
48975;SDS011;34791;52.752;8.346;2024-01-11T05:16:20;75.77;;;22.00;;
48975;SDS011;34791;52.752;8.346;2024-01-11T05:18:46;85.63;;;23.47;;
48975;SDS011;34791;52.752;8.346;2024-01-11T05:21:11;86.97;;;22.37;;
48975;SDS011;34791;52.752;8.346;2024-01-11T05:23:37;82.20;;;22.50;;
48975;SDS011;34791;52.752;8.346;2024-01-11T05:26:02;82.07;;;22.23;;
48975;SDS011;34791;52.752;8.346;2024-01-11T05:28:27;87.20;;;22.67;;
48975;SDS011;34791;52.752;8.346;2024-01-11T05:30:53;86.90;;;23.00;;
48975;SDS011;34791;52.752;8.346;2024-01-11T05:33:18;80.77;;;22.70;;
48975;SDS011;34791;52.752;8.346;2024-01-11T05:35:43;90.10;;;23.70;;
48975;SDS011;34791;52.752;8.346;2024-01-11T05:38:08;82.80;;;23.20;;
48975;SDS011;34791;52.752;8.346;2024-01-11T05:40:34;85.00;;;22.63;;
48975;SDS011;34791;52.752;8.346;2024-01-11T05:42:59;84.60;;;23.03;;
48975;SDS011;34791;52.752;8.346;2024-01-11T05:45:24;80.77;;;22.27;;
48975;SDS011;34791;52.752;8.346;2024-01-11T05:47:49;92.07;;;23.47;;
48975;SDS011;34791;52.752;8.346;2024-01-11T05:50:15;107.97;;;26.30;;
48975;SDS011;34791;52.752;8.346;2024-01-11T05:52:40;115.80;;;25.23;;
48975;SDS011;34791;52.752;8.346;2024-01-11T05:55:05;113.73;;;24.60;;
48975;SDS011;34791;52.752;8.346;2024-01-11T05:57:30;128.53;;;26.80;;
48975;SDS011;34791;52.752;8.346;2024-01-11T05:59:56;129.07;;;27.60;;
48975;SDS011;34791;52.752;8.346;2024-01-11T06:02:21;143.70;;;28.03;;
48975;SDS011;34791;52.752;8.346;2024-01-11T06:04:47;110.10;;;25.00;;
48975;SDS011;34791;52.752;8.346;2024-01-11T06:07:14;111.70;;;25.63;;
48975;SDS011;34791;52.752;8.346;2024-01-11T06:09:39;107.77;;;26.53;;
48975;SDS011;34791;52.752;8.346;2024-01-11T06:12:05;111.87;;;25.87;;
48975;SDS011;34791;52.752;8.346;2024-01-11T06:14:30;102.93;;;25.07;;
48975;SDS011;34791;52.752;8.346;2024-01-11T06:16:55;107.27;;;26.73;;
48975;SDS011;34791;52.752;8.346;2024-01-11T06:19:20;109.63;;;26.07;;
48975;SDS011;34791;52.752;8.346;2024-01-11T06:21:46;112.03;;;26.63;;
48975;SDS011;34791;52.752;8.346;2024-01-11T06:24:12;111.03;;;25.07;;
48975;SDS011;34791;52.752;8.346;2024-01-11T06:26:37;102.93;;;25.40;;
48975;SDS011;34791;52.752;8.346;2024-01-11T06:29:02;107.30;;;24.40;;
48975;SDS011;34791;52.752;8.346;2024-01-11T06:31:27;115.57;;;27.93;;
48975;SDS011;34791;52.752;8.346;2024-01-11T06:33:53;114.40;;;26.10;;
48975;SDS011;34791;52.752;8.346;2024-01-11T06:36:18;114.40;;;25.30;;
48975;SDS011;34791;52.752;8.346;2024-01-11T06:38:43;115.23;;;25.70;;
48975;SDS011;34791;52.752;8.346;2024-01-11T06:41:08;107.63;;;25.90;;
48975;SDS011;34791;52.752;8.346;2024-01-11T06:43:34;119.73;;;26.90;;
48975;SDS011;34791;52.752;8.346;2024-01-11T06:46:03;114.57;;;26.97;;
48975;SDS011;34791;52.752;8.346;2024-01-11T06:48:28;107.60;;;25.63;;
48975;SDS011;34791;52.752;8.346;2024-01-11T06:50:53;107.20;;;25.57;;
48975;SDS011;34791;52.752;8.346;2024-01-11T06:53:19;107.00;;;25.07;;
48975;SDS011;34791;52.752;8.346;2024-01-11T06:55:44;97.93;;;25.97;;
48975;SDS011;34791;52.752;8.346;2024-01-11T06:58:09;107.40;;;24.47;;
48975;SDS011;34791;52.752;8.346;2024-01-11T07:00:35;106.87;;;25.83;;
48975;SDS011;34791;52.752;8.346;2024-01-11T07:03:00;104.13;;;25.27;;
48975;SDS011;34791;52.752;8.346;2024-01-11T07:05:26;112.40;;;24.03;;
48975;SDS011;34791;52.752;8.346;2024-01-11T07:07:51;107.97;;;24.03;;
48975;SDS011;34791;52.752;8.346;2024-01-11T07:10:16;111.90;;;25.90;;
48975;SDS011;34791;52.752;8.346;2024-01-11T07:12:42;104.97;;;25.30;;
48975;SDS011;34791;52.752;8.346;2024-01-11T07:15:08;112.20;;;26.00;;
48975;SDS011;34791;52.752;8.346;2024-01-11T07:17:33;94.33;;;24.57;;
48975;SDS011;34791;52.752;8.346;2024-01-11T07:19:59;109.07;;;24.83;;
48975;SDS011;34791;52.752;8.346;2024-01-11T07:22:24;105.03;;;23.93;;
48975;SDS011;34791;52.752;8.346;2024-01-11T07:24:49;116.20;;;27.37;;
48975;SDS011;34791;52.752;8.346;2024-01-11T07:27:14;118.13;;;26.30;;
48975;SDS011;34791;52.752;8.346;2024-01-11T07:29:40;121.33;;;27.23;;
48975;SDS011;34791;52.752;8.346;2024-01-11T07:32:05;106.83;;;27.23;;
48975;SDS011;34791;52.752;8.346;2024-01-11T07:34:30;102.37;;;24.57;;
48975;SDS011;34791;52.752;8.346;2024-01-11T07:36:55;112.93;;;24.23;;
48975;SDS011;34791;52.752;8.346;2024-01-11T07:39:23;119.13;;;27.77;;
48975;SDS011;34791;52.752;8.346;2024-01-11T07:41:49;117.33;;;29.63;;
48975;SDS011;34791;52.752;8.346;2024-01-11T07:44:14;102.93;;;25.70;;
48975;SDS011;34791;52.752;8.346;2024-01-11T07:46:40;99.10;;;23.90;;
48975;SDS011;34791;52.752;8.346;2024-01-11T07:49:05;109.30;;;24.90;;
48975;SDS011;34791;52.752;8.346;2024-01-11T07:51:31;100.13;;;23.63;;
48975;SDS011;34791;52.752;8.346;2024-01-11T07:53:56;119.30;;;27.07;;
48975;SDS011;34791;52.752;8.346;2024-01-11T07:56:21;119.23;;;26.57;;
48975;SDS011;34791;52.752;8.346;2024-01-11T07:58:47;109.07;;;26.63;;
48975;SDS011;34791;52.752;8.346;2024-01-11T08:01:12;109.30;;;27.00;;
48975;SDS011;34791;52.752;8.346;2024-01-11T08:03:38;118.63;;;29.10;;
48975;SDS011;34791;52.752;8.346;2024-01-11T08:06:03;121.10;;;27.53;;
48975;SDS011;34791;52.752;8.346;2024-01-11T08:08:28;121.60;;;25.83;;
48975;SDS011;34791;52.752;8.346;2024-01-11T08:10:54;118.33;;;28.43;;
48975;SDS011;34791;52.752;8.346;2024-01-11T08:13:19;135.53;;;28.73;;
48975;SDS011;34791;52.752;8.346;2024-01-11T08:15:46;119.40;;;28.37;;
48975;SDS011;34791;52.752;8.346;2024-01-11T08:18:11;118.70;;;27.97;;
48975;SDS011;34791;52.752;8.346;2024-01-11T08:20:37;123.03;;;28.00;;
48975;SDS011;34791;52.752;8.346;2024-01-11T08:23:03;125.70;;;27.23;;
48975;SDS011;34791;52.752;8.346;2024-01-11T08:25:28;121.60;;;28.37;;
48975;SDS011;34791;52.752;8.346;2024-01-11T08:27:54;112.63;;;26.40;;
48975;SDS011;34791;52.752;8.346;2024-01-11T08:30:19;131.90;;;28.90;;
48975;SDS011;34791;52.752;8.346;2024-01-11T08:32:45;115.83;;;27.63;;
48975;SDS011;34791;52.752;8.346;2024-01-11T08:35:10;129.37;;;28.87;;
48975;SDS011;34791;52.752;8.346;2024-01-11T08:37:36;162.03;;;29.57;;
48975;SDS011;34791;52.752;8.346;2024-01-11T08:40:02;141.73;;;30.10;;
48975;SDS011;34791;52.752;8.346;2024-01-11T08:42:29;122.50;;;28.53;;
48975;SDS011;34791;52.752;8.346;2024-01-11T08:44:55;135.60;;;28.53;;
48975;SDS011;34791;52.752;8.346;2024-01-11T08:47:20;122.60;;;28.00;;
48975;SDS011;34791;52.752;8.346;2024-01-11T08:49:45;129.30;;;28.57;;
48975;SDS011;34791;52.752;8.346;2024-01-11T08:52:10;118.70;;;28.47;;
48975;SDS011;34791;52.752;8.346;2024-01-11T08:54:36;165.67;;;31.30;;
48975;SDS011;34791;52.752;8.346;2024-01-11T08:57:01;133.37;;;27.23;;
48975;SDS011;34791;52.752;8.346;2024-01-11T08:59:26;123.87;;;27.37;;
48975;SDS011;34791;52.752;8.346;2024-01-11T09:01:52;130.37;;;28.00;;
48975;SDS011;34791;52.752;8.346;2024-01-11T09:04:18;115.67;;;25.77;;
48975;SDS011;34791;52.752;8.346;2024-01-11T09:06:43;120.57;;;27.13;;
48975;SDS011;34791;52.752;8.346;2024-01-11T09:09:09;129.73;;;27.87;;
48975;SDS011;34791;52.752;8.346;2024-01-11T09:11:35;123.27;;;26.83;;
48975;SDS011;34791;52.752;8.346;2024-01-11T09:14:00;113.90;;;26.00;;
48975;SDS011;34791;52.752;8.346;2024-01-11T09:16:27;120.83;;;24.57;;
48975;SDS011;34791;52.752;8.346;2024-01-11T09:18:53;117.90;;;27.43;;
48975;SDS011;34791;52.752;8.346;2024-01-11T09:21:18;120.33;;;27.53;;
48975;SDS011;34791;52.752;8.346;2024-01-11T09:23:43;112.80;;;24.83;;
48975;SDS011;34791;52.752;8.346;2024-01-11T09:26:09;112.07;;;26.80;;
48975;SDS011;34791;52.752;8.346;2024-01-11T09:28:34;122.53;;;26.63;;
48975;SDS011;34791;52.752;8.346;2024-01-11T09:30:59;113.07;;;25.73;;
48975;SDS011;34791;52.752;8.346;2024-01-11T09:33:25;104.47;;;27.17;;
48975;SDS011;34791;52.752;8.346;2024-01-11T09:35:51;119.97;;;28.03;;
48975;SDS011;34791;52.752;8.346;2024-01-11T09:38:16;120.77;;;29.27;;
48975;SDS011;34791;52.752;8.346;2024-01-11T09:40:41;107.77;;;26.03;;
48975;SDS011;34791;52.752;8.346;2024-01-11T09:43:06;108.93;;;26.73;;
48975;SDS011;34791;52.752;8.346;2024-01-11T09:45:34;101.13;;;26.37;;
48975;SDS011;34791;52.752;8.346;2024-01-11T09:48:00;99.30;;;26.37;;
48975;SDS011;34791;52.752;8.346;2024-01-11T09:50:27;107.10;;;27.93;;
48975;SDS011;34791;52.752;8.346;2024-01-11T09:52:53;105.53;;;26.77;;
48975;SDS011;34791;52.752;8.346;2024-01-11T09:55:18;108.37;;;27.37;;
48975;SDS011;34791;52.752;8.346;2024-01-11T09:57:45;108.67;;;26.13;;
48975;SDS011;34791;52.752;8.346;2024-01-11T10:00:12;106.60;;;24.73;;
48975;SDS011;34791;52.752;8.346;2024-01-11T10:02:38;122.23;;;26.40;;
48975;SDS011;34791;52.752;8.346;2024-01-11T10:05:04;106.00;;;27.17;;
48975;SDS011;34791;52.752;8.346;2024-01-11T10:07:30;104.00;;;27.13;;
48975;SDS011;34791;52.752;8.346;2024-01-11T10:09:55;115.40;;;27.73;;
48975;SDS011;34791;52.752;8.346;2024-01-11T10:12:21;99.87;;;25.97;;
48975;SDS011;34791;52.752;8.346;2024-01-11T10:14:49;104.83;;;26.23;;
48975;SDS011;34791;52.752;8.346;2024-01-11T10:17:15;106.40;;;25.63;;
48975;SDS011;34791;52.752;8.346;2024-01-11T10:19:40;98.77;;;26.40;;
48975;SDS011;34791;52.752;8.346;2024-01-11T10:22:05;108.53;;;27.80;;
48975;SDS011;34791;52.752;8.346;2024-01-11T10:24:31;121.70;;;28.50;;
48975;SDS011;34791;52.752;8.346;2024-01-11T10:26:57;101.80;;;26.90;;
48975;SDS011;34791;52.752;8.346;2024-01-11T10:29:27;107.80;;;27.17;;
48975;SDS011;34791;52.752;8.346;2024-01-11T10:31:52;103.00;;;27.03;;
48975;SDS011;34791;52.752;8.346;2024-01-11T10:34:18;109.73;;;27.37;;
48975;SDS011;34791;52.752;8.346;2024-01-11T10:36:43;103.37;;;27.53;;
48975;SDS011;34791;52.752;8.346;2024-01-11T10:39:08;99.00;;;25.77;;
48975;SDS011;34791;52.752;8.346;2024-01-11T10:41:38;105.47;;;26.93;;
48975;SDS011;34791;52.752;8.346;2024-01-11T10:44:04;105.37;;;25.83;;
48975;SDS011;34791;52.752;8.346;2024-01-11T10:46:31;98.07;;;25.70;;
48975;SDS011;34791;52.752;8.346;2024-01-11T10:48:58;88.20;;;25.30;;
48975;SDS011;34791;52.752;8.346;2024-01-11T10:51:24;89.30;;;24.77;;
48975;SDS011;34791;52.752;8.346;2024-01-11T10:53:50;91.53;;;24.70;;
48975;SDS011;34791;52.752;8.346;2024-01-11T10:56:16;88.37;;;23.60;;
48975;SDS011;34791;52.752;8.346;2024-01-11T10:58:42;95.23;;;24.30;;
48975;SDS011;34791;52.752;8.346;2024-01-11T11:01:11;90.67;;;25.03;;
48975;SDS011;34791;52.752;8.346;2024-01-11T11:03:37;88.90;;;23.60;;
48975;SDS011;34791;52.752;8.346;2024-01-11T11:06:04;95.80;;;24.43;;
48975;SDS011;34791;52.752;8.346;2024-01-11T11:08:29;81.13;;;22.73;;
48975;SDS011;34791;52.752;8.346;2024-01-11T11:11:00;98.03;;;26.07;;
48975;SDS011;34791;52.752;8.346;2024-01-11T11:13:26;98.47;;;25.52;;
48975;SDS011;34791;52.752;8.346;2024-01-11T11:15:52;79.50;;;23.40;;
48975;SDS011;34791;52.752;8.346;2024-01-11T11:18:17;84.93;;;24.07;;
48975;SDS011;34791;52.752;8.346;2024-01-11T11:20:43;89.00;;;25.70;;
48975;SDS011;34791;52.752;8.346;2024-01-11T11:23:09;90.67;;;24.80;;
48975;SDS011;34791;52.752;8.346;2024-01-11T11:25:35;90.37;;;26.33;;
48975;SDS011;34791;52.752;8.346;2024-01-11T11:28:01;93.33;;;25.20;;
48975;SDS011;34791;52.752;8.346;2024-01-11T11:30:29;85.60;;;25.30;;
48975;SDS011;34791;52.752;8.346;2024-01-11T11:32:54;84.57;;;23.87;;
48975;SDS011;34791;52.752;8.346;2024-01-11T11:35:19;83.10;;;24.50;;
48975;SDS011;34791;52.752;8.346;2024-01-11T11:37:45;72.57;;;22.57;;
48975;SDS011;34791;52.752;8.346;2024-01-11T11:40:11;66.87;;;24.10;;
48975;SDS011;34791;52.752;8.346;2024-01-11T11:42:36;80.60;;;22.97;;
48975;SDS011;34791;52.752;8.346;2024-01-11T11:45:02;76.97;;;23.10;;
48975;SDS011;34791;52.752;8.346;2024-01-11T11:47:34;78.73;;;22.90;;
48975;SDS011;34791;52.752;8.346;2024-01-11T11:50:04;71.50;;;22.03;;
48975;SDS011;34791;52.752;8.346;2024-01-11T11:52:30;74.27;;;22.40;;
48975;SDS011;34791;52.752;8.346;2024-01-11T11:54:57;79.13;;;22.23;;
48975;SDS011;34791;52.752;8.346;2024-01-11T11:57:23;74.70;;;22.60;;
48975;SDS011;34791;52.752;8.346;2024-01-11T11:59:49;75.20;;;22.97;;
48975;SDS011;34791;52.752;8.346;2024-01-11T12:02:16;70.30;;;20.83;;
48975;SDS011;34791;52.752;8.346;2024-01-11T12:04:46;65.20;;;19.83;;
48975;SDS011;34791;52.752;8.346;2024-01-11T12:07:11;66.60;;;21.83;;
48975;SDS011;34791;52.752;8.346;2024-01-11T12:09:36;77.13;;;23.13;;
48975;SDS011;34791;52.752;8.346;2024-01-11T12:12:02;70.87;;;22.03;;
48975;SDS011;34791;52.752;8.346;2024-01-11T12:14:28;71.33;;;20.27;;
48975;SDS011;34791;52.752;8.346;2024-01-11T12:16:59;69.80;;;22.30;;
48975;SDS011;34791;52.752;8.346;2024-01-11T12:19:25;68.82;;;20.60;;
48975;SDS011;34791;52.752;8.346;2024-01-11T12:21:50;68.67;;;21.23;;
48975;SDS011;34791;52.752;8.346;2024-01-11T12:24:16;67.80;;;20.00;;
48975;SDS011;34791;52.752;8.346;2024-01-11T12:26:42;62.87;;;21.13;;
48975;SDS011;34791;52.752;8.346;2024-01-11T12:29:07;66.40;;;20.47;;
48975;SDS011;34791;52.752;8.346;2024-01-11T12:31:34;63.57;;;21.40;;
48975;SDS011;34791;52.752;8.346;2024-01-11T12:34:00;61.57;;;20.13;;
48975;SDS011;34791;52.752;8.346;2024-01-11T12:36:25;68.63;;;21.40;;
48975;SDS011;34791;52.752;8.346;2024-01-11T12:38:50;69.13;;;21.40;;
48975;SDS011;34791;52.752;8.346;2024-01-11T12:41:17;66.90;;;19.30;;
48975;SDS011;34791;52.752;8.346;2024-01-11T12:43:42;66.17;;;18.97;;
48975;SDS011;34791;52.752;8.346;2024-01-11T12:46:07;60.53;;;20.10;;
48975;SDS011;34791;52.752;8.346;2024-01-11T12:48:33;61.37;;;20.00;;
48975;SDS011;34791;52.752;8.346;2024-01-11T12:50:58;61.33;;;19.70;;
48975;SDS011;34791;52.752;8.346;2024-01-11T12:53:23;65.10;;;19.93;;
48975;SDS011;34791;52.752;8.346;2024-01-11T12:56:01;63.70;;;19.57;;
48975;SDS011;34791;52.752;8.346;2024-01-11T12:58:27;56.33;;;18.57;;
48975;SDS011;34791;52.752;8.346;2024-01-11T13:00:52;60.20;;;21.37;;
48975;SDS011;34791;52.752;8.346;2024-01-11T13:03:18;61.07;;;20.53;;
48975;SDS011;34791;52.752;8.346;2024-01-11T13:05:45;67.43;;;19.43;;
48975;SDS011;34791;52.752;8.346;2024-01-11T13:08:10;70.47;;;21.23;;
48975;SDS011;34791;52.752;8.346;2024-01-11T13:10:36;66.73;;;20.87;;
48975;SDS011;34791;52.752;8.346;2024-01-11T13:13:01;54.87;;;20.17;;
48975;SDS011;34791;52.752;8.346;2024-01-11T13:15:27;63.57;;;20.33;;
48975;SDS011;34791;52.752;8.346;2024-01-11T13:17:54;65.53;;;21.53;;
48975;SDS011;34791;52.752;8.346;2024-01-11T13:20:19;61.67;;;19.50;;
48975;SDS011;34791;52.752;8.346;2024-01-11T13:22:44;63.63;;;19.93;;
48975;SDS011;34791;52.752;8.346;2024-01-11T13:25:10;62.47;;;20.10;;
48975;SDS011;34791;52.752;8.346;2024-01-11T13:27:35;56.13;;;18.97;;
48975;SDS011;34791;52.752;8.346;2024-01-11T13:30:00;62.17;;;20.20;;
48975;SDS011;34791;52.752;8.346;2024-01-11T13:32:25;52.90;;;19.13;;
48975;SDS011;34791;52.752;8.346;2024-01-11T13:34:51;61.83;;;18.47;;
48975;SDS011;34791;52.752;8.346;2024-01-11T13:37:18;60.07;;;17.93;;
48975;SDS011;34791;52.752;8.346;2024-01-11T13:39:43;57.47;;;17.27;;
48975;SDS011;34791;52.752;8.346;2024-01-11T13:42:09;66.67;;;20.50;;
48975;SDS011;34791;52.752;8.346;2024-01-11T13:44:34;59.60;;;18.97;;
48975;SDS011;34791;52.752;8.346;2024-01-11T13:47:00;62.03;;;19.53;;
48975;SDS011;34791;52.752;8.346;2024-01-11T13:49:25;62.07;;;19.97;;
48975;SDS011;34791;52.752;8.346;2024-01-11T13:51:50;63.20;;;20.23;;
48975;SDS011;34791;52.752;8.346;2024-01-11T13:54:16;66.93;;;20.60;;
48975;SDS011;34791;52.752;8.346;2024-01-11T13:56:41;64.50;;;21.57;;
48975;SDS011;34791;52.752;8.346;2024-01-11T13:59:07;65.93;;;23.13;;
48975;SDS011;34791;52.752;8.346;2024-01-11T14:01:32;65.67;;;23.27;;
48975;SDS011;34791;52.752;8.346;2024-01-11T14:03:57;63.00;;;20.90;;
48975;SDS011;34791;52.752;8.346;2024-01-11T14:06:23;75.27;;;22.13;;
48975;SDS011;34791;52.752;8.346;2024-01-11T14:08:48;67.70;;;20.93;;